Time;durP1;ratioP1;P1;durP2;ratioP2;P2;SDS_P1;SDS_P2;PMS_P1;PMS_P2;Temp;Humidity;BMP_temperature;BMP_pressure;BME280_temperature;BME280_humidity;BME280_pressure;Samples;Min_cycle;Max_cycle;Signal;HPM_P1;HPM_P2
2021/07/09 00:01:40;;;;;;;18.10;14.47;;;;;;;22.76;77.47;98078.37;1769473;80;20992;-72
2021/07/09 00:04:06;;;;;;;16.67;14.95;;;;;;;22.76;77.53;98081.93;1770072;80;21223;-73
2021/07/09 00:06:32;;;;;;;15.78;14.07;;;;;;;22.77;77.49;98078.59;1770093;80;21551;-73
2021/07/09 00:09:00;;;;;;;24.15;16.02;;;;;;;22.81;77.23;98078.88;1769926;80;20917;-72
2021/07/09 00:11:26;;;;;;;18.30;14.80;;;;;;;22.88;77.08;98071.95;1770455;80;20946;-72
2021/07/09 00:13:52;;;;;;;20.20;15.03;;;;;;;22.85;77.73;98072.11;1769764;80;20933;-73
2021/07/09 00:16:18;;;;;;;18.57;15.98;;;;;;;22.84;77.36;98065.53;1769546;80;21046;-72
2021/07/09 00:18:47;;;;;;;20.60;15.60;;;;;;;22.88;77.16;98069.19;1770196;80;20977;-72
2021/07/09 00:21:14;;;;;;;20.55;16.07;;;;;;;22.92;76.93;98072.86;1770441;80;20956;-73
2021/07/09 00:23:41;;;;;;;18.85;14.73;;;;;;;22.95;76.78;98071.55;1768509;80;20949;-74
2021/07/09 00:26:07;;;;;;;19.20;14.43;;;;;;;22.98;76.65;98069.43;1767415;80;20898;-73
2021/07/09 00:28:33;;;;;;;16.40;14.58;;;;;;;23.00;76.49;98064.37;1767606;80;21038;-74
2021/07/09 00:30:59;;;;;;;20.97;15.58;;;;;;;23.00;76.35;98058.84;1768182;80;20837;-73
2021/07/09 00:33:25;;;;;;;16.05;14.45;;;;;;;23.01;76.18;98060.44;1767839;81;20849;-73
2021/07/09 00:35:50;;;;;;;17.65;14.28;;;;;;;22.99;76.01;98053.09;1768023;81;20940;-73
2021/07/09 00:38:16;;;;;;;20.27;16.30;;;;;;;22.97;75.95;98054.02;1767918;80;21519;-72
2021/07/09 00:40:43;;;;;;;18.05;15.35;;;;;;;22.90;75.97;98053.05;1768254;80;21058;-73
2021/07/09 00:43:09;;;;;;;19.40;14.95;;;;;;;22.81;76.43;98047.11;1767771;80;20945;-72
2021/07/09 00:45:35;;;;;;;21.00;14.65;;;;;;;22.76;76.57;98043.84;1768226;81;21590;-74
2021/07/09 00:48:01;;;;;;;16.60;14.87;;;;;;;22.76;76.63;98050.75;1767987;80;20933;-73
2021/07/09 00:50:27;;;;;;;18.55;14.40;;;;;;;22.75;76.65;98045.01;1768040;81;20876;-73
2021/07/09 00:52:53;;;;;;;18.07;14.98;;;;;;;22.74;76.59;98046.17;1767723;81;21701;-72
2021/07/09 00:55:19;;;;;;;16.37;14.43;;;;;;;22.73;76.64;98051.45;1767486;80;20837;-74
2021/07/09 00:57:47;;;;;;;16.00;14.40;;;;;;;22.70;76.61;98057.12;1767462;81;32584;-73
2021/07/09 01:00:15;;;;;;;17.33;13.90;;;;;;;22.69;76.66;98070.70;1747194;80;20942;-72
2021/07/09 01:02:41;;;;;;;16.50;14.43;;;;;;;22.64;77.20;98060.50;1767903;81;22002;-74
2021/07/09 01:05:09;;;;;;;16.35;14.65;;;;;;;22.61;77.00;98069.52;1767778;81;21177;-72
2021/07/09 01:07:36;;;;;;;24.02;15.05;;;;;;;22.59;77.70;98064.94;1767226;80;20945;-72
2021/07/09 01:10:06;;;;;;;18.87;14.50;;;;;;;22.49;78.59;98062.94;1767443;81;20932;-74
2021/07/09 01:12:32;;;;;;;16.30;14.60;;;;;;;22.46;77.71;98065.59;1767869;80;20930;-74
2021/07/09 01:14:57;;;;;;;20.15;13.72;;;;;;;22.47;77.40;98067.19;1767784;80;20833;-72
2021/07/09 01:17:23;;;;;;;16.25;13.95;;;;;;;22.53;76.92;98058.88;1767875;81;21314;-74
2021/07/09 01:19:49;;;;;;;17.80;14.60;;;;;;;22.57;76.81;98047.35;1767637;81;20936;-75
2021/07/09 01:22:15;;;;;;;19.32;14.25;;;;;;;22.58;76.61;98050.33;1768054;80;20838;-72
2021/07/09 01:24:41;;;;;;;16.80;13.15;;;;;;;22.56;76.72;98045.75;1775249;80;20935;-72
2021/07/09 01:27:07;;;;;;;17.07;14.50;;;;;;;22.51;77.20;98039.11;1775898;80;21934;-73
2021/07/09 01:29:33;;;;;;;17.40;14.60;;;;;;;22.37;77.41;98031.84;1775386;80;21230;-73
2021/07/09 01:31:59;;;;;;;18.48;14.93;;;;;;;22.24;78.63;98031.95;1775354;80;20872;-72
2021/07/09 01:34:25;;;;;;;16.52;14.68;;;;;;;22.19;78.26;98038.30;1775722;80;21000;-72
2021/07/09 01:36:51;;;;;;;17.35;14.85;;;;;;;22.19;78.12;98036.92;1775827;80;20849;-74
2021/07/09 01:39:18;;;;;;;21.50;14.47;;;;;;;22.22;78.36;98033.47;1775630;80;20929;-72
2021/07/09 01:41:44;;;;;;;15.38;13.40;;;;;;;22.18;78.07;98037.50;1775720;80;21299;-72
2021/07/09 01:44:10;;;;;;;20.77;14.98;;;;;;;22.14;79.15;98029.73;1775747;80;20889;-74
2021/07/09 01:46:37;;;;;;;15.75;14.00;;;;;;;22.06;78.98;98030.67;1775479;80;20833;-72
2021/07/09 01:49:03;;;;;;;20.10;14.60;;;;;;;22.03;79.05;98024.46;1775211;80;20980;-72
2021/07/09 01:51:29;;;;;;;17.15;15.15;;;;;;;21.98;79.37;98018.42;1775921;80;20802;-72
2021/07/09 01:53:55;;;;;;;18.45;13.55;;;;;;;21.96;79.15;98018.76;1775779;80;21324;-72
2021/07/09 01:56:21;;;;;;;15.78;14.18;;;;;;;21.94;79.42;98019.70;1775714;80;20869;-73
2021/07/09 01:58:47;;;;;;;17.00;14.53;;;;;;;21.89;79.73;98019.98;1775713;80;20873;-72
2021/07/09 02:01:13;;;;;;;19.45;14.65;;;;;;;21.90;79.38;98020.19;1775821;80;20805;-74
2021/07/09 02:03:39;;;;;;;20.52;15.30;;;;;;;21.92;79.48;98017.30;1775865;80;20908;-74
2021/07/09 02:06:05;;;;;;;18.17;14.60;;;;;;;21.90;79.25;98018.81;1775965;80;21161;-74
2021/07/09 02:08:31;;;;;;;19.67;13.85;;;;;;;21.89;79.14;98022.73;1775755;80;20880;-72
2021/07/09 02:10:57;;;;;;;19.67;14.03;;;;;;;21.84;79.12;98023.78;1775855;80;20896;-72
2021/07/09 02:13:23;;;;;;;19.87;14.30;;;;;;;21.82;79.30;98029.44;1776009;80;20900;-74
2021/07/09 02:15:48;;;;;;;20.15;14.50;;;;;;;21.74;80.14;98026.26;1776075;80;20794;-72
2021/07/09 02:18:15;;;;;;;16.35;14.78;;;;;;;21.63;80.51;98032.29;1776084;80;21242;-74
2021/07/09 02:20:41;;;;;;;21.97;14.80;;;;;;;21.51;80.31;98041.17;1775990;80;21028;-75
2021/07/09 02:23:11;;;;;;;25.40;17.00;;;;;;;21.48;80.81;98039.92;1766735;80;20931;-73
2021/07/09 02:25:37;;;;;;;37.28;20.25;;;;;;;21.42;81.21;98036.39;1740904;81;21041;-74
2021/07/09 02:28:03;;;;;;;40.98;21.73;;;;;;;21.37;81.07;98030.56;1741824;81;20946;-73
2021/07/09 02:30:30;;;;;;;15.95;14.20;;;;;;;21.39;80.94;98032.38;1741556;81;20871;-72
2021/07/09 02:32:56;;;;;;;16.73;13.48;;;;;;;21.39;80.82;98035.94;1739578;81;20963;-72
2021/07/09 02:35:25;;;;;;;20.72;15.50;;;;;;;21.40;81.33;98040.88;1739443;82;20942;-74
2021/07/09 02:37:51;;;;;;;17.45;14.90;;;;;;;21.30;81.03;98040.80;1741735;81;21375;-72
2021/07/09 02:40:21;;;;;;;17.75;15.08;;;;;;;21.28;81.74;98047.82;1741410;81;20876;-72
2021/07/09 02:42:50;;;;;;;22.48;15.15;;;;;;;21.20;82.17;98041.27;1742529;81;21162;-72
2021/07/09 02:45:17;;;;;;;;;;;;;;;21.08;82.23;98037.14;1741073;81;21406;-73
2021/07/09 02:47:43;;;;;;;40.63;22.87;;;;;;;20.97;82.39;98036.83;1741119;81;20180;-73
2021/07/09 02:50:13;;;;;;;39.27;21.75;;;;;;;20.92;82.39;98031.55;1741703;81;20962;-73
2021/07/09 02:52:38;;;;;;;39.92;23.80;;;;;;;20.93;81.95;98029.59;1740816;81;21026;-74
2021/07/09 02:55:06;;;;;;;35.70;20.52;;;;;;;20.97;81.91;98027.77;1742135;81;21148;-74
2021/07/09 02:57:32;;;;;;;18.20;14.70;;;;;;;20.93;82.30;98015.25;1740781;81;20973;-72
2021/07/09 02:59:58;;;;;;;15.78;13.75;;;;;;;21.02;81.99;98031.64;1740958;81;21461;-72
2021/07/09 03:02:24;;;;;;;17.85;14.60;;;;;;;21.06;81.69;98033.95;1740539;81;20812;-73
2021/07/09 03:04:50;;;;;;;21.95;14.43;;;;;;;21.09;81.64;98038.75;1756763;81;21339;-72
2021/07/09 03:07:16;;;;;;;21.60;16.15;;;;;;;21.06;81.80;98030.61;1740948;81;21217;-74
2021/07/09 03:09:42;;;;;;;22.27;15.25;;;;;;;20.99;81.58;98041.41;1739481;82;20886;-72
2021/07/09 03:12:08;;;;;;;22.20;16.05;;;;;;;20.96;82.14;98039.36;1742186;81;20933;-73
2021/07/09 03:14:34;;;;;;;24.85;16.75;;;;;;;20.87;83.44;98040.07;1741321;81;20855;-72
2021/07/09 03:17:01;;;;;;;27.13;18.17;;;;;;;20.82;82.36;98035.59;1730951;82;20911;-73
2021/07/09 03:19:26;;;;;;;25.45;18.27;;;;;;;20.69;82.93;98033.21;1742424;81;21987;-72
2021/07/09 03:21:52;;;;;;;25.40;18.98;;;;;;;20.64;83.06;98035.61;1741338;81;20875;-72
2021/07/09 03:24:18;;;;;;;29.15;19.65;;;;;;;20.67;82.61;98039.03;1759404;80;20908;-73
2021/07/09 03:26:44;;;;;;;27.45;18.07;;;;;;;20.75;82.48;98031.80;1770178;80;20954;-73
2021/07/09 03:29:10;;;;;;;23.77;19.17;;;;;;;20.81;82.54;98031.81;1769906;80;21523;-73
2021/07/09 03:31:36;;;;;;;23.95;18.60;;;;;;;20.88;82.36;98038.11;1769938;80;21168;-72
2021/07/09 03:34:02;;;;;;;25.12;18.50;;;;;;;20.95;82.15;98044.64;1770102;81;20916;-72
2021/07/09 03:36:29;;;;;;;24.30;18.45;;;;;;;21.01;82.01;98045.19;1770241;80;20928;-72
2021/07/09 03:38:56;;;;;;;18.07;16.17;;;;;;;21.07;81.70;98046.56;1770143;80;21630;-73
2021/07/09 03:41:23;;;;;;;22.65;16.82;;;;;;;21.08;82.61;98044.83;1770129;80;20905;-73
2021/07/09 03:43:49;;;;;;;22.55;17.60;;;;;;;21.09;81.72;98044.26;1770169;80;21317;-72
2021/07/09 03:46:15;;;;;;;20.08;16.35;;;;;;;20.98;82.67;98042.56;1770180;81;20810;-72
2021/07/09 03:48:40;;;;;;;20.43;18.02;;;;;;;21.00;82.23;98039.45;1770301;80;20845;-72
2021/07/09 03:51:07;;;;;;;19.70;15.13;;;;;;;21.01;82.09;98036.92;1770174;81;20892;-73
2021/07/09 03:53:33;;;;;;;20.72;16.32;;;;;;;21.11;81.85;98037.84;1770255;80;21456;-74
2021/07/09 03:55:59;;;;;;;18.60;15.88;;;;;;;21.24;81.59;98040.78;1769794;80;21052;-73
2021/07/09 03:58:25;;;;;;;17.15;14.65;;;;;;;21.30;81.28;98043.55;1769991;81;20959;-73
2021/07/09 04:00:51;;;;;;;21.25;15.85;;;;;;;21.42;81.03;98040.52;1768956;81;20985;-72
2021/07/09 04:03:17;;;;;;;18.17;14.38;;;;;;;21.49;80.71;98031.08;1769991;80;21355;-74
2021/07/09 04:05:43;;;;;;;20.70;16.05;;;;;;;21.56;80.39;98023.02;1770014;80;20854;-72
2021/07/09 04:08:09;;;;;;;19.62;15.85;;;;;;;21.56;80.21;98029.33;1770277;80;21334;-72
2021/07/09 04:10:36;;;;;;;22.13;15.95;;;;;;;21.57;80.59;98028.17;1770053;80;20822;-73
2021/07/09 04:13:02;;;;;;;19.05;15.23;;;;;;;21.69;80.26;98021.78;1770054;80;21452;-72
2021/07/09 04:15:28;;;;;;;17.77;13.85;;;;;;;21.79;79.82;98019.92;1769916;80;20945;-72
2021/07/09 04:17:54;;;;;;;24.23;15.05;;;;;;;21.84;79.67;98021.60;1770226;80;21500;-72
2021/07/09 04:20:20;;;;;;;19.65;14.78;;;;;;;21.90;79.62;98023.75;1769975;80;21086;-73
2021/07/09 04:22:46;;;;;;;22.22;15.13;;;;;;;21.95;79.43;98024.85;1769860;80;21385;-73
2021/07/09 04:25:12;;;;;;;18.80;14.78;;;;;;;22.12;79.21;98031.22;1769812;81;20873;-72
2021/07/09 04:27:39;;;;;;;16.35;14.65;;;;;;;22.28;78.80;98036.75;1770076;80;21439;-72
2021/07/09 04:30:08;;;;;;;15.63;13.90;;;;;;;22.40;78.05;98028.39;1770212;80;21410;-72
2021/07/09 04:32:34;;;;;;;26.80;15.80;;;;;;;22.46;77.01;98036.02;1770387;80;21364;-72
2021/07/09 04:35:00;;;;;;;16.82;15.03;;;;;;;22.45;77.00;98032.25;1770249;80;20829;-73
2021/07/09 04:37:25;;;;;;;16.23;14.43;;;;;;;22.55;76.65;98030.31;1770354;80;20857;-73
2021/07/09 04:39:51;;;;;;;19.23;13.65;;;;;;;22.65;76.27;98027.03;1770325;80;20802;-72
2021/07/09 04:42:17;;;;;;;21.02;14.30;;;;;;;22.85;76.10;98029.28;1771225;80;20834;-73
2021/07/09 04:44:43;;;;;;;15.53;12.10;;;;;;;23.01;76.05;98030.05;1770113;80;21914;-73
2021/07/09 04:47:09;;;;;;;15.85;13.13;;;;;;;23.16;75.21;98033.10;1770045;80;20837;-72
2021/07/09 04:49:35;;;;;;;16.20;13.68;;;;;;;23.25;74.81;98038.66;1769908;81;20912;-72
2021/07/09 04:52:01;;;;;;;15.23;12.65;;;;;;;23.36;73.44;98033.35;1770217;80;20922;-72
2021/07/09 04:54:27;;;;;;;15.50;12.58;;;;;;;23.47;72.11;98029.41;1769756;80;21331;-73
2021/07/09 04:56:53;;;;;;;16.15;13.22;;;;;;;23.46;72.17;98031.38;1769942;80;21090;-73
2021/07/09 04:59:19;;;;;;;14.95;13.38;;;;;;;23.50;72.00;98034.20;1769965;80;20842;-72
2021/07/09 05:01:45;;;;;;;13.53;11.93;;;;;;;23.63;71.64;98033.73;1770022;80;20846;-72
2021/07/09 05:04:11;;;;;;;16.15;12.47;;;;;;;23.76;71.17;98026.67;1770104;81;20861;-72
2021/07/09 05:06:37;;;;;;;13.75;11.70;;;;;;;23.84;71.10;98025.06;1769905;80;21043;-73
2021/07/09 05:09:04;;;;;;;15.08;12.63;;;;;;;24.01;70.79;98027.11;1770096;81;21149;-74
2021/07/09 05:11:30;;;;;;;16.50;13.68;;;;;;;24.11;70.55;98023.17;1769884;80;20989;-73
2021/07/09 05:13:56;;;;;;;16.55;12.30;;;;;;;24.17;70.26;98025.03;1770194;80;20938;-73
2021/07/09 05:16:22;;;;;;;15.55;13.48;;;;;;;24.28;70.13;98020.49;1769768;80;20849;-74
2021/07/09 05:18:48;;;;;;;15.32;12.58;;;;;;;24.43;69.50;98016.80;1770158;81;21464;-73
2021/07/09 05:21:14;;;;;;;14.13;12.80;;;;;;;24.66;69.42;98013.20;1769812;81;21317;-72
2021/07/09 05:23:40;;;;;;;13.38;11.97;;;;;;;24.91;68.73;98014.95;1769825;80;20834;-72
2021/07/09 05:26:06;;;;;;;13.08;11.78;;;;;;;25.14;68.13;98000.46;1770133;80;21590;-73
2021/07/09 05:28:31;;;;;;;15.23;11.80;;;;;;;25.31;66.69;98004.64;1770256;80;20822;-72
2021/07/09 05:30:57;;;;;;;14.53;12.18;;;;;;;25.52;66.60;97997.95;1769885;81;20822;-73
2021/07/09 05:33:23;;;;;;;13.10;11.65;;;;;;;25.76;65.41;98006.37;1770191;81;22022;-74
2021/07/09 05:35:49;;;;;;;12.23;10.70;;;;;;;25.85;65.31;98001.31;1769816;80;20930;-72
2021/07/09 05:38:15;;;;;;;14.87;12.10;;;;;;;26.02;63.70;97997.70;1770324;80;21499;-73
2021/07/09 05:40:41;;;;;;;14.25;12.70;;;;;;;26.03;63.50;97995.93;1769476;80;20837;-72
2021/07/09 05:43:07;;;;;;;14.75;12.20;;;;;;;26.08;62.20;97987.86;1769474;80;20916;-72
2021/07/09 05:45:33;;;;;;;16.05;13.43;;;;;;;26.09;62.39;97982.51;1769580;80;21054;-73
2021/07/09 05:47:59;;;;;;;12.88;11.57;;;;;;;26.23;61.67;97986.77;1769732;80;20904;-73
2021/07/09 05:50:26;;;;;;;13.43;11.93;;;;;;;26.32;61.64;97990.05;1770159;80;20838;-74
2021/07/09 05:52:54;;;;;;;15.08;12.33;;;;;;;26.41;61.77;97991.14;1769790;81;20945;-74
2021/07/09 05:55:21;;;;;;;13.95;12.37;;;;;;;26.63;61.42;97992.08;1770303;80;20977;-74
2021/07/09 05:57:47;;;;;;;15.48;13.05;;;;;;;26.88;60.83;97999.19;1769683;80;21151;-73
2021/07/09 06:00:14;;;;;;;22.00;13.15;;;;;;;27.01;60.43;97989.95;1769716;80;20987;-75
2021/07/09 06:02:40;;;;;;;17.60;11.53;;;;;;;27.22;60.83;97981.72;1769897;80;21410;-74
2021/07/09 06:05:07;;;;;;;19.27;11.43;;;;;;;27.52;59.98;97991.19;1769726;81;20830;-74
2021/07/09 06:07:33;;;;;;;14.63;11.93;;;;;;;27.68;60.15;97993.03;1770199;80;21405;-73
2021/07/09 06:09:59;;;;;;;15.93;11.73;;;;;;;27.74;58.60;97988.69;1770066;80;21146;-73
2021/07/09 06:12:25;;;;;;;18.32;11.40;;;;;;;27.88;59.26;97986.53;1769981;80;20813;-73
2021/07/09 06:14:51;;;;;;;15.45;11.25;;;;;;;28.07;58.84;97981.98;1770028;81;20849;-73
2021/07/09 06:17:18;;;;;;;15.80;11.20;;;;;;;28.29;58.24;97983.43;1769667;80;20821;-73
2021/07/09 06:19:44;;;;;;;15.15;11.22;;;;;;;28.52;57.76;97977.42;1770063;80;21043;-74
2021/07/09 06:22:10;;;;;;;14.70;11.25;;;;;;;28.66;57.30;97981.00;1770139;80;21150;-73
2021/07/09 06:24:36;;;;;;;13.75;11.05;;;;;;;28.81;56.23;97983.77;1769062;80;20826;-75
2021/07/09 06:27:03;;;;;;;19.30;11.45;;;;;;;28.80;55.35;97980.19;1767450;81;21572;-73
2021/07/09 06:29:29;;;;;;;13.93;11.60;;;;;;;28.73;54.33;97978.80;1767800;81;21391;-74
2021/07/09 06:31:55;;;;;;;15.50;11.73;;;;;;;28.66;54.87;97975.42;1767879;80;20992;-73
2021/07/09 06:34:21;;;;;;;12.80;11.43;;;;;;;28.70;53.77;97975.41;1768035;80;21217;-75
2021/07/09 06:36:47;;;;;;;16.77;12.55;;;;;;;28.66;55.11;97971.24;1767626;80;21487;-73
2021/07/09 06:39:13;;;;;;;12.15;10.95;;;;;;;28.90;55.16;97968.84;1768004;80;20912;-73
2021/07/09 06:41:39;;;;;;;15.68;12.00;;;;;;;29.02;54.15;97975.36;1767667;81;20849;-73
2021/07/09 06:44:05;;;;;;;14.68;10.78;;;;;;;29.09;53.78;97970.38;1768268;80;21487;-73
2021/07/09 06:46:31;;;;;;;13.72;10.80;;;;;;;29.12;54.07;97971.74;1767651;81;21057;-73
2021/07/09 06:48:57;;;;;;;12.40;10.80;;;;;;;29.36;53.39;97972.05;1767591;81;20849;-74
2021/07/09 06:51:23;;;;;;;12.82;10.40;;;;;;;29.33;51.56;97973.67;1767679;81;20845;-73
2021/07/09 06:53:49;;;;;;;18.48;10.85;;;;;;;29.36;52.82;97965.87;1768010;81;20778;-74
2021/07/09 06:56:15;;;;;;;11.53;10.38;;;;;;;29.59;53.26;97970.19;1767819;80;20877;-74
2021/07/09 06:58:42;;;;;;;17.60;13.98;;;;;;;29.51;52.88;97975.01;1768100;80;21112;-73
2021/07/09 07:01:08;;;;;;;22.62;16.00;;;;;;;29.25;54.22;97976.30;1767151;81;21803;-74
2021/07/09 07:03:34;;;;;;;26.87;19.70;;;;;;;28.82;58.62;97981.17;1768566;80;20881;-73
2021/07/09 07:06:00;;;;;;;26.42;21.85;;;;;;;28.37;60.95;97976.06;1768007;81;20845;-74
2021/07/09 07:08:26;;;;;;;26.45;22.65;;;;;;;28.01;61.98;97968.24;1768401;80;20854;-73
2021/07/09 07:10:54;;;;;;;29.25;22.42;;;;;;;27.80;62.93;97964.05;1767174;81;21307;-73
2021/07/09 07:13:24;;;;;;;26.87;22.37;;;;;;;27.64;64.35;97970.55;1767922;80;20921;-74
2021/07/09 07:15:50;;;;;;;29.12;22.35;;;;;;;27.60;64.64;97969.12;1767869;81;20941;-72
2021/07/09 07:18:16;;;;;;;25.85;23.07;;;;;;;27.81;64.56;97967.03;1767775;80;21000;-72
2021/07/09 07:20:44;;;;;;;27.20;24.43;;;;;;;27.82;64.30;97965.23;1767716;81;20853;-71
2021/07/09 07:23:12;;;;;;;27.70;23.50;;;;;;;28.13;64.08;97964.29;1767941;80;21306;-72
2021/07/09 07:25:39;;;;;;;31.68;25.12;;;;;;;28.33;63.41;97956.34;1753074;80;20989;-73
2021/07/09 07:28:06;;;;;;;25.15;22.65;;;;;;;28.62;62.94;97962.67;1744345;80;20983;-73
2021/07/09 07:30:32;;;;;;;26.73;22.05;;;;;;;28.77;62.49;97969.82;1744290;82;21020;-73
2021/07/09 07:32:58;;;;;;;26.60;23.05;;;;;;;28.99;61.82;97959.45;1744507;82;20849;-74
2021/07/09 07:35:24;;;;;;;26.20;23.47;;;;;;;29.18;61.54;97947.02;1744368;80;20913;-73
2021/07/09 07:37:50;;;;;;;26.60;23.90;;;;;;;29.27;60.61;97952.17;1744349;81;20861;-73
2021/07/09 07:40:16;;;;;;;26.02;22.52;;;;;;;29.81;59.97;97949.29;1744439;81;21044;-73
2021/07/09 07:42:42;;;;;;;24.55;22.17;;;;;;;30.20;58.87;97949.64;1744081;82;21028;-74
2021/07/09 07:45:10;;;;;;;26.15;23.38;;;;;;;30.49;57.84;97938.99;1745011;81;20901;-73
2021/07/09 07:47:35;;;;;;;30.88;22.32;;;;;;;30.68;56.99;97928.67;1744477;82;21470;-74
2021/07/09 07:50:03;;;;;;;32.83;23.70;;;;;;;30.88;56.67;97930.23;1745654;81;20854;-74
2021/07/09 07:52:29;;;;;;;28.50;23.05;;;;;;;31.30;56.24;97925.36;1744671;81;21012;-74
2021/07/09 07:54:54;;;;;;;26.52;22.85;;;;;;;31.21;54.91;97914.69;1744452;82;20873;-73
2021/07/09 07:57:20;;;;;;;24.57;20.23;;;;;;;31.44;55.86;97913.34;1744118;81;20909;-73
2021/07/09 07:59:47;;;;;;;23.42;20.85;;;;;;;31.73;54.90;97909.55;1744539;81;21108;-73
2021/07/09 08:02:13;;;;;;;22.17;19.75;;;;;;;32.01;53.52;97917.34;1744060;82;21085;-74
2021/07/09 08:04:39;;;;;;;22.27;19.95;;;;;;;32.27;52.38;97906.69;1744314;82;20893;-74
2021/07/09 08:07:05;;;;;;;25.20;22.60;;;;;;;32.46;53.70;97913.58;1744167;82;20853;-73
2021/07/09 08:09:31;;;;;;;24.95;20.92;;;;;;;32.37;51.85;97903.53;1744397;82;20938;-73
2021/07/09 08:11:58;;;;;;;23.25;20.92;;;;;;;32.73;51.27;97900.06;1744302;81;21198;-74
2021/07/09 08:14:24;;;;;;;23.65;19.55;;;;;;;33.10;51.95;97891.33;1744582;81;21473;-73
2021/07/09 08:16:51;;;;;;;23.87;21.48;;;;;;;33.29;50.46;97895.95;1730984;82;20878;-74
2021/07/09 08:19:19;;;;;;;24.63;21.20;;;;;;;33.26;49.49;97891.22;1731390;83;20938;-74
2021/07/09 08:21:46;;;;;;;22.87;20.25;;;;;;;33.91;50.20;97891.36;1730794;82;21394;-74
2021/07/09 08:24:14;;;;;;;23.90;21.13;;;;;;;34.48;48.89;97891.34;1731542;83;21197;-74
2021/07/09 08:26:40;;;;;;;;;;;;;;;34.86;48.37;97889.29;1733397;82;20988;-74
2021/07/09 08:29:06;;;;;;;20.85;18.75;;;;;;;35.04;47.56;97884.78;1731217;83;20732;-74
2021/07/09 08:31:31;;;;;;;21.87;19.40;;;;;;;34.46;47.33;97887.58;1731754;82;21296;-74
2021/07/09 08:33:57;;;;;;;20.90;18.00;;;;;;;34.58;45.55;97879.63;1731317;83;20895;-74
2021/07/09 08:36:24;;;;;;;20.70;18.55;;;;;;;35.04;46.54;97876.95;1730908;82;21978;-74
2021/07/09 08:38:53;;;;;;;21.05;18.87;;;;;;;35.19;45.60;97877.30;1731004;82;20954;-75
2021/07/09 08:41:20;;;;;;;18.25;16.50;;;;;;;36.01;44.99;97869.93;1730894;82;21338;-75
2021/07/09 08:43:46;;;;;;;17.98;16.00;;;;;;;36.33;42.96;97876.52;1731663;82;20969;-75
2021/07/09 08:46:14;;;;;;;17.75;15.80;;;;;;;36.37;43.08;97878.61;1731153;83;21052;-76
2021/07/09 08:48:40;;;;;;;17.92;16.32;;;;;;;36.12;43.42;97877.40;1731680;82;21763;-75
2021/07/09 08:51:06;;;;;;;21.50;16.42;;;;;;;35.65;43.74;97880.14;1730870;82;21001;-75
2021/07/09 08:53:32;;;;;;;19.40;17.50;;;;;;;35.12;43.97;97863.43;1730976;83;20933;-75
2021/07/09 08:55:58;;;;;;;21.00;17.75;;;;;;;34.19;45.99;97865.98;1730563;83;20930;-73
2021/07/09 08:58:25;;;;;;;21.73;19.50;;;;;;;33.52;47.42;97874.02;1730761;83;21017;-75
2021/07/09 09:00:51;;;;;;;20.30;18.20;;;;;;;33.24;48.07;97867.77;1730992;82;21323;-75
2021/07/09 09:03:20;;;;;;;24.47;19.73;;;;;;;33.12;48.87;97874.05;1731160;82;20958;-74
2021/07/09 09:05:47;;;;;;;22.90;20.08;;;;;;;33.10;48.92;97872.30;1710041;83;20953;-75
2021/07/09 09:08:16;;;;;;;29.65;19.45;;;;;;;32.95;49.14;97876.02;1708801;83;21033;-75
2021/07/09 09:10:49;;;;;;;22.98;19.37;;;;;;;32.73;50.30;97878.44;1731081;82;21132;-75
2021/07/09 09:13:21;;;;;;;23.12;19.45;;;;;;;32.39;51.85;97878.69;1731150;82;21744;-76
2021/07/09 09:16:10;;;;;;;22.10;19.10;;;;;;;33.78;49.46;97878.60;1730907;82;20934;-72
2021/07/09 09:18:39;;;;;;;23.90;17.27;;;;;;;35.08;46.87;97874.02;1731465;82;20941;-74
2021/07/09 09:21:08;;;;;;;19.05;17.12;;;;;;;36.19;44.53;97880.61;1730322;83;20974;-74
2021/07/09 09:23:38;;;;;;;20.23;16.77;;;;;;;36.08;43.28;97885.83;1730877;82;20974;-75
2021/07/09 09:26:06;;;;;;;21.62;17.20;;;;;;;35.97;43.65;97881.14;1732345;82;21453;-74
2021/07/09 09:28:36;;;;;;;15.63;14.15;;;;;;;36.88;42.43;97882.04;1708825;84;21347;-74
2021/07/09 09:31:02;;;;;;;16.50;14.00;;;;;;;37.63;41.30;97882.02;1709481;84;21077;-74
2021/07/09 09:33:33;;;;;;;15.88;14.28;;;;;;;36.33;42.17;97890.63;1709755;84;20886;-72
2021/07/09 09:35:59;;;;;;;19.62;16.05;;;;;;;35.18;43.84;97884.17;1709389;84;20914;-75
2021/07/09 09:38:28;;;;;;;20.48;14.85;;;;;;;34.31;45.80;97881.33;1689381;84;21149;-75
2021/07/09 09:40:56;;;;;;;17.20;15.45;;;;;;;33.54;47.51;97890.59;1709505;83;20927;-73
2021/07/09 09:43:27;;;;;;;17.73;15.78;;;;;;;32.62;50.02;97882.66;1709479;84;21478;-74
2021/07/09 09:46:02;;;;;;;19.07;16.95;;;;;;;31.92;51.88;97882.07;1708589;84;21110;-75
2021/07/09 09:48:47;;;;;;;18.82;16.17;;;;;;;31.23;53.73;97869.48;1733276;82;20918;-74
2021/07/09 09:51:36;;;;;;;18.67;16.85;;;;;;;31.16;53.57;97875.33;1733181;82;21218;-74
2021/07/09 09:54:05;;;;;;;23.15;17.25;;;;;;;30.93;55.15;97868.83;1732827;82;21081;-73
2021/07/09 09:56:41;;;;;;;23.22;18.00;;;;;;;30.85;55.12;97861.13;1733033;82;20987;-74
2021/07/09 09:59:22;;;;;;;21.02;17.20;;;;;;;30.95;54.43;97862.23;1711332;82;21367;-74
2021/07/09 10:01:58;;;;;;;19.48;17.67;;;;;;;31.00;54.73;97867.35;1732913;82;20930;-74
2021/07/09 10:04:26;;;;;;;19.73;16.32;;;;;;;30.92;55.93;97869.44;1733025;82;21119;-73
2021/07/09 10:06:53;;;;;;;41.55;34.48;;;;;;;30.81;55.30;97870.19;1732975;82;20997;-73
2021/07/09 10:09:19;;;;;;;47.00;33.65;;;;;;;30.79;54.99;97868.42;1733199;82;21427;-74
2021/07/09 10:11:45;;;;;;;19.25;17.17;;;;;;;30.78;55.15;97886.41;1732820;82;21025;-74
2021/07/09 10:14:14;;;;;;;20.25;15.68;;;;;;;30.69;55.07;97892.50;1733320;82;21567;-72
2021/07/09 10:16:42;;;;;;;23.35;19.65;;;;;;;30.53;55.46;97893.04;1732874;82;21811;-73
2021/07/09 10:19:11;;;;;;;19.82;16.27;;;;;;;30.25;55.93;97889.93;1733279;82;21343;-73
2021/07/09 10:21:40;;;;;;;17.25;15.05;;;;;;;31.24;53.75;97897.05;1732811;82;21476;-73
2021/07/09 10:24:09;;;;;;;17.60;15.75;;;;;;;31.36;52.36;97893.70;1733263;82;21409;-75
2021/07/09 10:26:43;;;;;;;17.90;15.90;;;;;;;31.33;52.13;97893.12;1709256;83;21004;-73
2021/07/09 10:29:15;;;;;;;21.45;15.53;;;;;;;31.28;52.71;97899.20;1730349;82;21368;-74
2021/07/09 10:31:43;;;;;;;19.17;16.20;;;;;;;31.04;53.14;97894.69;1730535;82;20958;-74
2021/07/09 10:34:35;;;;;;;17.10;15.40;;;;;;;30.81;54.14;97899.55;1730673;83;21403;-74
2021/07/09 10:37:18;;;;;;;17.30;13.40;;;;;;;30.42;54.29;97888.14;1767093;80;20906;-72
2021/07/09 10:39:49;;;;;;;16.77;12.70;;;;;;;30.25;53.74;97886.31;1747890;81;21444;-72
2021/07/09 10:42:30;;;;;;;17.85;13.70;;;;;;;29.96;54.45;97883.75;1766764;81;20967;-74
2021/07/09 10:45:12;;;;;;;15.53;12.75;;;;;;;30.21;54.08;97884.97;1766987;81;20966;-74
2021/07/09 10:47:43;;;;;;;20.32;13.60;;;;;;;30.05;54.11;97877.09;1761010;81;20995;-72
2021/07/09 10:50:18;;;;;;;18.20;13.53;;;;;;;30.20;54.10;97867.22;1757838;80;20976;-71
2021/07/09 10:52:54;;;;;;;25.57;15.15;;;;;;;30.00;54.62;97863.59;1767045;80;21452;-70
2021/07/09 10:55:36;;;;;;;20.32;14.80;;;;;;;29.91;54.79;97870.25;1792814;80;21172;-73
2021/07/09 10:58:19;;;;;;;20.77;14.95;;;;;;;29.78;54.91;97862.16;1760252;79;21050;-73
2021/07/09 11:00:56;;;;;;;15.78;12.80;;;;;;;29.82;54.91;97862.91;1760065;81;20951;-79
2021/07/09 11:03:44;;;;;;;15.48;12.47;;;;;;;29.86;55.17;97860.11;1757036;80;21612;-81
2021/07/09 11:06:16;;;;;;;15.35;12.75;;;;;;;30.02;54.76;97861.16;1756400;81;27028;-78
2021/07/09 11:09:01;;;;;;;18.60;12.40;;;;;;;30.18;54.13;97857.86;1754608;81;21066;-84
2021/07/09 11:11:52;;;;;;;18.10;11.97;;;;;;;30.44;53.65;97864.78;1755467;80;20956;-84
2021/07/09 11:14:37;;;;;;;27.27;12.75;;;;;;;30.42;53.18;97876.17;1754809;81;20964;-76
2021/07/09 11:17:21;;;;;;;13.15;11.45;;;;;;;30.50;53.17;97874.28;1754746;81;21044;-79
2021/07/09 11:19:48;;;;;;;15.15;10.63;;;;;;;31.66;50.56;97867.64;1754616;81;20952;-77